Time;durP1;ratioP1;P1;durP2;ratioP2;P2;SDS_P1;SDS_P2;PMS_P1;PMS_P2;Temp;Humidity;BMP_temperature;BMP_pressure;BME280_temperature;BME280_humidity;BME280_pressure;Samples;Min_cycle;Max_cycle;Signal;HPM_P1;HPM_P2
2021/01/22 00:02:03;;;;;;;4.63;1.20;;;;;;;6.97;100.00;98221.16;6229182;28;20085;-72
2021/01/22 00:05:05;;;;;;;3.08;1.00;;;;;;;6.85;100.00;98224.75;6230461;28;20042;-72
2021/01/22 00:08:06;;;;;;;2.03;1.20;;;;;;;7.04;100.00;98218.88;6229293;28;20081;-71
2021/01/22 00:11:07;;;;;;;2.90;1.20;;;;;;;6.97;100.00;98209.91;6228896;28;20114;-72
2021/01/22 00:14:08;;;;;;;1.95;1.10;;;;;;;7.00;100.00;98202.66;6229334;28;20212;-71
2021/01/22 00:17:10;;;;;;;1.25;1.15;;;;;;;7.06;100.00;98207.38;6229186;28;20046;-72
2021/01/22 00:20:11;;;;;;;2.88;0.70;;;;;;;7.27;100.00;98201.41;6229063;28;20065;-71
2021/01/22 00:23:12;;;;;;;1.95;1.02;;;;;;;7.30;100.00;98204.56;6228984;28;20050;-72
2021/01/22 00:26:13;;;;;;;2.22;1.20;;;;;;;7.33;100.00;98193.91;6229084;28;20046;-72
2021/01/22 00:29:14;;;;;;;1.30;0.80;;;;;;;7.34;100.00;98184.28;6228678;28;20058;-72
2021/01/22 00:32:15;;;;;;;1.50;0.80;;;;;;;7.37;98.78;98184.84;6228417;28;20049;-72
2021/01/22 00:35:16;;;;;;;0.80;0.70;;;;;;;7.58;98.19;98187.47;6225247;28;20053;-72
2021/01/22 00:38:17;;;;;;;0.93;0.63;;;;;;;7.70;97.08;98171.75;6224890;28;20053;-71
2021/01/22 00:41:18;;;;;;;3.25;0.98;;;;;;;7.57;97.68;98164.91;6225206;28;20061;-71
2021/01/22 00:44:19;;;;;;;1.33;0.80;;;;;;;7.75;97.20;98159.13;6224911;28;20430;-72
2021/01/22 00:47:21;;;;;;;1.27;0.65;;;;;;;7.72;97.08;98168.06;6225004;28;20053;-71
2021/01/22 00:50:22;;;;;;;1.35;0.80;;;;;;;7.65;97.27;98169.53;6224503;28;20050;-71
2021/01/22 00:53:23;;;;;;;1.00;0.70;;;;;;;7.61;98.74;98168.94;6224904;28;20100;-71
2021/01/22 00:56:24;;;;;;;2.10;0.73;;;;;;;7.51;99.19;98162.81;6224642;28;20049;-72
2021/01/22 00:59:24;;;;;;;3.00;0.95;;;;;;;7.49;99.61;98156.06;6224690;28;20053;-71
2021/01/22 01:02:26;;;;;;;1.67;0.70;;;;;;;7.33;99.79;98159.94;6225836;28;20411;-73
2021/01/22 01:05:27;;;;;;;1.63;0.82;;;;;;;7.34;100.00;98150.31;6224665;28;20042;-71
2021/01/22 01:08:28;;;;;;;2.10;0.75;;;;;;;7.29;100.00;98147.25;6224473;28;20180;-73
2021/01/22 01:11:28;;;;;;;1.65;0.80;;;;;;;7.31;99.97;98138.34;6224060;28;20057;-71
2021/01/22 01:14:29;;;;;;;1.65;0.60;;;;;;;7.47;99.64;98132.66;6224612;28;20419;-71
2021/01/22 01:17:31;;;;;;;0.80;0.57;;;;;;;7.61;98.36;98121.06;6224153;28;20064;-74
2021/01/22 01:20:32;;;;;;;1.45;0.60;;;;;;;7.49;98.18;98130.75;6223610;28;20050;-72
2021/01/22 01:23:33;;;;;;;1.85;0.43;;;;;;;7.66;97.43;98118.06;6224335;28;20104;-71
2021/01/22 01:26:34;;;;;;;2.88;0.40;;;;;;;7.67;97.50;98117.13;6223930;28;20046;-71
2021/01/22 01:29:34;;;;;;;0.77;0.52;;;;;;;7.67;96.84;98110.09;6223870;28;20050;-71
2021/01/22 01:32:36;;;;;;;1.02;0.50;;;;;;;7.77;96.53;98112.78;6225027;28;20054;-71
2021/01/22 01:35:37;;;;;;;1.48;0.50;;;;;;;7.86;95.99;98101.56;6224258;28;20046;-71
2021/01/22 01:38:38;;;;;;;0.93;0.35;;;;;;;7.87;95.19;98111.88;6223271;28;20496;-71
2021/01/22 01:41:39;;;;;;;1.83;0.65;;;;;;;7.98;93.95;98091.81;6223877;28;20085;-71
2021/01/22 01:44:40;;;;;;;1.35;0.50;;;;;;;7.93;94.46;98081.75;6223519;28;20049;-72
2021/01/22 01:47:41;;;;;;;0.70;0.50;;;;;;;8.09;94.14;98076.88;6223597;28;20491;-71
2021/01/22 01:50:43;;;;;;;1.05;0.45;;;;;;;7.99;94.32;98078.59;6222748;28;20061;-70
2021/01/22 01:53:44;;;;;;;2.05;0.60;;;;;;;7.98;93.54;98078.75;6223546;28;20426;-71
2021/01/22 01:56:46;;;;;;;0.50;0.35;;;;;;;7.98;93.28;98071.72;6223363;28;20050;-71
2021/01/22 01:59:47;;;;;;;1.25;0.55;;;;;;;8.17;91.55;98067.53;6222870;28;20545;-71
2021/01/22 02:02:49;;;;;;;1.48;0.40;;;;;;;8.25;90.78;98063.28;6235134;28;20053;-72
2021/01/22 02:05:50;;;;;;;0.55;0.30;;;;;;;8.26;89.41;98059.72;6247532;28;20060;-71
2021/01/22 02:08:51;;;;;;;2.38;0.30;;;;;;;8.20;89.83;98056.81;6247291;28;20061;-71
2021/01/22 02:11:52;;;;;;;1.73;0.50;;;;;;;8.54;87.15;98039.84;6247683;28;20061;-72
2021/01/22 02:14:55;;;;;;;2.45;0.60;;;;;;;8.46;88.56;98052.78;6248012;28;20087;-72
2021/01/22 02:17:57;;;;;;;3.90;0.45;;;;;;;8.47;87.97;98037.91;6247209;28;20049;-71
2021/01/22 02:21:12;;;;;;;1.00;0.40;;;;;;;8.60;86.53;98035.88;6234058;28;20060;-71
2021/01/22 02:24:18;;;;;;;2.15;0.40;;;;;;;8.75;85.67;98026.63;6222968;28;20053;-70
2021/01/22 02:27:20;;;;;;;2.80;0.75;;;;;;;8.75;85.66;98023.19;6222672;28;20065;-71
2021/01/22 02:30:21;;;;;;;1.52;0.38;;;;;;;8.84;85.26;98011.88;6222400;28;20049;-71
2021/01/22 02:33:22;;;;;;;1.35;0.45;;;;;;;8.82;84.96;98000.75;6223921;28;20111;-71
2021/01/22 02:36:24;;;;;;;3.63;0.75;;;;;;;8.86;83.69;98010.81;6222521;28;20057;-71
2021/01/22 02:39:29;;;;;;;5.90;0.85;;;;;;;8.90;83.26;98000.84;6221993;28;20046;-72
2021/01/22 02:42:32;;;;;;;1.92;0.60;;;;;;;9.13;81.76;98004.84;6222712;28;20478;-71
2021/01/22 02:45:33;;;;;;;1.95;0.57;;;;;;;9.07;81.58;97996.72;6222234;28;20050;-70
2021/01/22 02:48:34;;;;;;;4.63;1.88;;;;;;;9.13;79.84;97993.53;6222111;28;20050;-71
2021/01/22 02:51:35;;;;;;;1.73;0.52;;;;;;;9.29;79.43;98003.44;6221981;28;20137;-71
2021/01/22 02:54:36;;;;;;;5.75;1.20;;;;;;;9.33;79.43;97992.53;6222357;28;20077;-71
2021/01/22 02:57:46;;;;;;;5.38;0.60;;;;;;;9.27;78.72;97989.66;6221303;28;20060;-72
2021/01/22 03:00:49;;;;;;;4.88;1.00;;;;;;;9.43;78.63;97984.63;6221984;28;20057;-69
2021/01/22 03:03:57;;;;;;;4.47;0.63;;;;;;;9.22;80.30;97981.38;6244295;28;20049;-71
2021/01/22 03:07:01;;;;;;;2.15;0.65;;;;;;;9.10;80.99;97976.31;6246410;28;20449;-71
2021/01/22 03:10:04;;;;;;;4.45;0.60;;;;;;;9.15;81.73;97976.69;6246068;28;20049;-70
2021/01/22 03:13:06;;;;;;;5.05;0.65;;;;;;;9.03;82.20;97985.69;6246803;28;20057;-71
2021/01/22 03:16:07;;;;;;;1.55;0.77;;;;;;;9.10;82.02;97986.78;6246267;28;20049;-70
2021/01/22 03:19:08;;;;;;;4.88;1.25;;;;;;;9.02;85.16;97994.50;6240240;28;20042;-70
2021/01/22 03:22:09;;;;;;;3.53;0.80;;;;;;;8.76;85.88;97993.41;6221865;28;20050;-71
2021/01/22 03:25:11;;;;;;;3.40;0.70;;;;;;;8.82;86.40;97977.16;6221488;28;20057;-71
2021/01/22 03:28:15;;;;;;;4.03;0.80;;;;;;;8.71;87.75;97993.00;6221499;28;20105;-70
2021/01/22 03:31:16;;;;;;;1.50;0.60;;;;;;;8.65;87.90;97986.53;6221394;28;20128;-70
2021/01/22 03:34:16;;;;;;;2.17;0.80;;;;;;;8.60;89.03;97991.38;6222899;28;20450;-71
2021/01/22 03:37:23;;;;;;;3.42;0.80;;;;;;;8.59;89.59;97992.34;6221400;28;20070;-70
2021/01/22 03:40:25;;;;;;;2.20;0.70;;;;;;;8.63;88.46;97983.25;6221404;28;20061;-70
2021/01/22 03:43:27;;;;;;;4.40;0.80;;;;;;;8.55;88.24;97997.00;6221727;28;20054;-71
2021/01/22 03:46:27;;;;;;;5.40;0.65;;;;;;;8.51;90.10;98010.50;6221474;28;20046;-71
2021/01/22 03:49:28;;;;;;;3.90;0.60;;;;;;;8.57;89.57;98031.72;6220879;28;20050;-75
2021/01/22 03:52:29;;;;;;;5.10;0.70;;;;;;;7.74;88.49;98144.41;6221602;28;20137;-76
2021/01/22 03:55:30;;;;;;;1.88;0.52;;;;;;;6.40;95.91;98161.31;6221750;28;20077;-75
2021/01/22 03:58:32;;;;;;;2.47;0.28;;;;;;;5.61;97.81;98158.59;6220693;28;20053;-77
2021/01/22 04:01:32;;;;;;;1.05;0.30;;;;;;;5.45;100.00;98197.13;6221379;28;20054;-75
2021/01/22 04:04:33;;;;;;;2.60;0.52;;;;;;;5.33;100.00;98201.47;6227092;28;20112;-74
2021/01/22 04:07:34;;;;;;;3.83;0.22;;;;;;;5.28;100.00;98207.03;6221882;28;20184;-73
2021/01/22 04:10:35;;;;;;;0.40;0.40;;;;;;;5.12;100.00;98237.69;6225446;28;20045;-74
2021/01/22 04:13:37;;;;;;;2.40;0.47;;;;;;;5.16;100.00;98261.72;6226155;28;20535;-73
2021/01/22 04:16:37;;;;;;;2.65;0.38;;;;;;;4.87;100.00;98271.59;6225555;28;20050;-74
2021/01/22 04:19:38;;;;;;;0.73;0.50;;;;;;;4.62;100.00;98299.28;6225789;28;20057;-75
2021/01/22 04:22:39;;;;;;;0.75;0.50;;;;;;;4.27;100.00;98309.47;6225374;28;20069;-75
2021/01/22 04:25:40;;;;;;;0.50;0.50;;;;;;;4.04;99.81;98339.59;6225926;28;20129;-74
2021/01/22 04:28:42;;;;;;;0.52;0.52;;;;;;;3.96;100.00;98345.28;6226269;28;20434;-73
2021/01/22 04:31:42;;;;;;;0.80;0.80;;;;;;;3.81;100.00;98362.72;6225473;28;20060;-74
2021/01/22 04:34:43;;;;;;;0.70;0.70;;;;;;;3.84;100.00;98366.88;6225532;28;20050;-73
2021/01/22 04:37:44;;;;;;;1.30;0.70;;;;;;;3.74;100.00;98389.16;6224986;28;20427;-73
2021/01/22 04:40:45;;;;;;;1.10;1.00;;;;;;;3.56;100.00;98404.16;6225012;28;20077;-74
2021/01/22 04:43:47;;;;;;;0.80;0.80;;;;;;;3.59;100.00;98411.75;6225257;28;20065;-75
2021/01/22 04:46:48;;;;;;;1.55;1.40;;;;;;;3.58;100.00;98441.22;6224962;28;20045;-74
2021/01/22 04:49:50;;;;;;;1.02;0.90;;;;;;;3.51;100.00;98438.19;6224247;28;20053;-74
2021/01/22 04:52:54;;;;;;;1.40;1.08;;;;;;;3.30;100.00;98421.31;6224949;28;20419;-75
2021/01/22 04:55:57;;;;;;;1.33;1.13;;;;;;;3.29;100.00;98435.22;6225765;28;20080;-74
2021/01/22 04:59:00;;;;;;;1.30;1.20;;;;;;;3.22;100.00;98463.31;6224309;28;20096;-76
2021/01/22 05:02:02;;;;;;;1.40;1.00;;;;;;;3.32;100.00;98461.00;6257605;23;20045;-73
2021/01/22 05:05:03;;;;;;;1.30;1.10;;;;;;;3.22;100.00;98473.69;6249009;28;20048;-74
2021/01/22 05:08:04;;;;;;;1.20;0.90;;;;;;;3.26;99.61;98462.19;6248670;28;20403;-74
2021/01/22 05:11:05;;;;;;;0.70;0.70;;;;;;;3.24;98.09;98502.16;6259285;28;20054;-75
2021/01/22 05:14:08;;;;;;;1.83;0.68;;;;;;;3.16;98.66;98504.38;6249381;28;20057;-75
2021/01/22 05:17:10;;;;;;;1.27;0.90;;;;;;;3.23;98.82;98516.91;6248051;28;20053;-76
2021/01/22 05:20:12;;;;;;;0.80;0.70;;;;;;;3.28;98.76;98522.66;6249054;28;20457;-74
2021/01/22 05:23:13;;;;;;;1.35;1.10;;;;;;;3.19;98.85;98530.16;6246692;28;20053;-74
2021/01/22 05:26:16;;;;;;;2.80;1.45;;;;;;;3.11;98.30;98532.34;6237844;28;20045;-75
2021/01/22 05:29:18;;;;;;;2.50;0.85;;;;;;;3.08;98.13;98540.31;6248069;28;20140;-75
2021/01/22 05:32:26;;;;;;;1.08;0.98;;;;;;;3.12;98.16;98539.19;6248869;28;20095;-75
2021/01/22 05:35:29;;;;;;;1.13;1.02;;;;;;;3.15;98.29;98550.25;6248652;28;20056;-74
2021/01/22 05:38:39;;;;;;;2.53;1.10;;;;;;;3.15;97.71;98545.06;6248166;28;20340;-75
2021/01/22 05:41:50;;;;;;;3.05;1.30;;;;;;;3.11;97.70;98569.50;6248524;28;20132;-75
2021/01/22 05:44:53;;;;;;;2.80;1.30;;;;;;;3.00;97.45;98548.56;6241087;28;20049;-75
2021/01/22 05:47:54;;;;;;;3.83;1.52;;;;;;;2.99;97.46;98547.69;6240645;28;20049;-75
2021/01/22 05:50:57;;;;;;;4.57;2.30;;;;;;;2.96;98.57;98553.06;6230123;28;20049;-75
2021/01/22 05:53:57;;;;;;;3.85;2.10;;;;;;;2.84;98.58;98571.94;6247085;28;20038;-75
2021/01/22 05:56:58;;;;;;;4.32;2.22;;;;;;;2.76;99.70;98579.28;6247568;28;20046;-76
2021/01/22 06:00:11;;;;;;;5.13;2.45;;;;;;;2.70;100.00;98585.66;6247843;28;20148;-75
2021/01/22 06:03:22;;;;;;;3.17;2.40;;;;;;;2.74;100.00;98596.72;6247554;28;20184;-75
2021/01/22 06:06:31;;;;;;;4.03;2.78;;;;;;;2.83;99.60;98601.38;6247569;28;20183;-75
2021/01/22 06:09:33;;;;;;;;;;;;;;;2.63;100.00;98605.06;6247868;28;20061;-76
2021/01/22 06:12:35;;;;;;;2.70;2.15;;;;;;;2.79;99.55;98605.91;6248840;28;20019;-75
2021/01/22 06:15:36;;;;;;;3.13;2.38;;;;;;;2.76;99.32;98610.41;6247612;28;20085;-75
2021/01/22 06:18:38;;;;;;;3.28;2.63;;;;;;;2.55;100.00;98620.25;6246195;28;20056;-76
2021/01/22 06:21:40;;;;;;;4.43;2.35;;;;;;;2.55;100.00;98625.41;6247409;28;20551;-76
2021/01/22 06:24:40;;;;;;;3.63;2.42;;;;;;;2.68;99.16;98625.56;6247409;28;20395;-76
2021/01/22 06:27:42;;;;;;;5.10;2.40;;;;;;;2.53;100.00;98627.25;6246921;28;20050;-76
2021/01/22 06:30:44;;;;;;;2.33;2.13;;;;;;;2.61;100.00;98632.03;6246408;28;20049;-75
2021/01/22 06:33:46;;;;;;;5.68;3.63;;;;;;;2.46;100.00;98647.50;6247284;28;20050;-76
2021/01/22 06:36:48;;;;;;;2.65;2.22;;;;;;;2.50;100.00;98646.41;6247840;28;20045;-75
2021/01/22 06:39:50;;;;;;;2.83;2.38;;;;;;;2.44;100.00;98646.72;6246620;28;20049;-75
2021/01/22 06:42:52;;;;;;;2.83;2.45;;;;;;;2.45;100.00;98661.38;6246898;28;20080;-76
2021/01/22 06:46:00;;;;;;;3.08;2.38;;;;;;;2.49;100.00;98669.81;6246414;28;20412;-76
2021/01/22 06:49:02;;;;;;;4.70;2.28;;;;;;;2.59;100.00;98683.97;6222046;28;20052;-76
2021/01/22 06:52:10;;;;;;;2.70;2.20;;;;;;;2.61;100.00;98682.13;6222319;28;20072;-75
2021/01/22 06:55:12;;;;;;;3.53;2.50;;;;;;;2.60;100.00;98685.63;6221338;28;20050;-78
2021/01/22 06:58:23;;;;;;;4.72;2.85;;;;;;;2.65;100.00;98695.75;6221546;28;20430;-78
2021/01/22 07:01:33;;;;;;;3.72;2.60;;;;;;;2.76;100.00;98698.59;6221315;28;20053;-76
2021/01/22 07:04:38;;;;;;;;;;;;;;;2.91;99.41;98709.91;6243134;28;20144;-77
2021/01/22 07:07:44;;;;;;;6.40;3.28;;;;;;;2.89;99.20;98714.34;6245948;28;19924;-76
2021/01/22 07:11:00;;;;;;;5.25;3.33;;;;;;;2.85;99.72;98715.41;6246175;28;20041;-77
2021/01/22 07:14:01;;;;;;;8.43;3.55;;;;;;;2.85;99.64;98716.25;6246149;28;20136;-77
2021/01/22 07:17:14;;;;;;;5.22;3.50;;;;;;;2.95;99.69;98725.22;6245275;28;20075;-77
2021/01/22 07:20:15;;;;;;;6.88;3.53;;;;;;;2.98;99.38;98726.81;6245551;28;20045;-74
2021/01/22 07:23:16;;;;;;;6.63;3.97;;;;;;;3.04;99.35;98721.25;6246392;28;20510;-77
2021/01/22 07:26:17;;;;;;;5.03;3.90;;;;;;;3.01;99.46;98727.47;6239152;28;20056;-77
2021/01/22 07:29:20;;;;;;;6.80;4.38;;;;;;;3.04;99.04;98729.03;6243594;28;20041;-77
2021/01/22 07:32:28;;;;;;;7.72;4.13;;;;;;;3.00;99.49;98737.94;6246179;28;20514;-76
2021/01/22 07:35:29;;;;;;;6.95;4.32;;;;;;;3.02;99.63;98734.34;6244018;28;20119;-76
2021/01/22 07:38:31;;;;;;;9.45;4.57;;;;;;;3.14;99.39;98735.44;6245758;28;20461;-76
2021/01/22 07:41:32;;;;;;;10.13;4.68;;;;;;;3.11;99.27;98739.94;6246302;28;20049;-76
2021/01/22 07:44:33;;;;;;;9.25;4.50;;;;;;;3.11;99.48;98745.13;6251449;28;20472;-75
2021/01/22 07:47:36;;;;;;;9.43;5.80;;;;;;;3.09;99.50;98746.97;6233095;28;20046;-77
2021/01/22 07:50:37;;;;;;;7.53;5.28;;;;;;;3.11;99.91;98768.50;6226000;28;20049;-76
2021/01/22 07:53:38;;;;;;;8.90;5.80;;;;;;;3.09;99.99;98768.59;6226025;28;20511;-76
2021/01/22 07:56:40;;;;;;;10.48;6.10;;;;;;;3.11;99.89;98771.91;6271248;28;20527;-76
2021/01/22 07:59:42;;;;;;;9.27;5.82;;;;;;;3.20;99.25;98773.19;6262623;28;20053;-75
2021/01/22 08:02:57;;;;;;;8.95;5.20;;;;;;;3.22;99.83;98766.97;6248930;28;20115;-75
2021/01/22 08:06:01;;;;;;;12.23;6.88;;;;;;;3.25;98.79;98776.34;6245057;28;20103;-76
2021/01/22 08:09:05;;;;;;;12.65;6.47;;;;;;;3.27;99.35;98780.56;6250432;28;20049;-74
2021/01/22 08:12:11;;;;;;;10.95;5.93;;;;;;;3.27;99.04;98784.88;6242377;28;20099;-75
2021/01/22 08:15:16;;;;;;;8.90;6.05;;;;;;;3.48;98.58;98783.69;6241716;28;20060;-74
2021/01/22 08:18:18;;;;;;;9.68;6.78;;;;;;;3.34;98.70;98786.22;6245871;28;20057;-75
2021/01/22 08:21:20;;;;;;;10.07;6.55;;;;;;;3.40;97.99;98780.69;6250907;28;20052;-76
2021/01/22 08:24:22;;;;;;;10.70;6.68;;;;;;;3.38;98.62;98779.94;6249999;28;20059;-76
2021/01/22 08:27:23;;;;;;;13.07;7.43;;;;;;;3.45;97.70;98786.47;6249960;28;20049;-75
2021/01/22 08:30:26;;;;;;;8.88;6.18;;;;;;;3.56;98.39;98780.69;6226678;28;20050;-74
2021/01/22 08:33:28;;;;;;;10.55;6.68;;;;;;;3.53;97.52;98789.47;6225189;28;20049;-75
2021/01/22 08:36:29;;;;;;;11.18;7.20;;;;;;;3.47;97.84;98797.59;6225042;28;20104;-75
2021/01/22 08:39:55;;;;;;;10.82;7.60;;;;;;;3.49;97.61;98792.31;6228583;28;20422;-75
2021/01/22 08:42:58;;;;;;;13.95;7.60;;;;;;;3.58;97.46;98791.81;6253723;28;20494;-76
2021/01/22 08:46:05;;;;;;;16.23;8.20;;;;;;;3.72;96.46;98799.66;6238932;28;20048;-75
2021/01/22 08:49:13;;;;;;;11.73;7.90;;;;;;;3.60;96.72;98810.75;6224667;28;20049;-75
2021/01/22 08:52:14;;;;;;;13.30;8.52;;;;;;;3.63;97.23;98812.31;6224342;28;20075;-76
2021/01/22 08:55:19;;;;;;;13.07;8.48;;;;;;;3.76;96.48;98814.13;6224089;28;20419;-75
2021/01/22 08:58:20;;;;;;;14.15;8.18;;;;;;;3.75;95.28;98815.06;6224232;28;20046;-75
2021/01/22 09:01:21;;;;;;;13.35;8.48;;;;;;;3.66;95.29;98813.00;6224265;28;20061;-75
2021/01/22 09:04:31;;;;;;;14.60;9.40;;;;;;;3.70;96.49;98811.06;6224595;28;20411;-75
2021/01/22 09:07:32;;;;;;;16.75;8.93;;;;;;;3.78;96.04;98812.31;6230946;28;20041;-75
2021/01/22 09:10:33;;;;;;;15.25;8.95;;;;;;;3.76;95.67;98821.94;6247370;28;20478;-74
2021/01/22 09:13:33;;;;;;;14.23;8.10;;;;;;;3.86;95.07;98824.00;6239371;28;20517;-76
2021/01/22 09:16:45;;;;;;;16.60;9.38;;;;;;;3.89;95.01;98829.03;6224090;28;20058;-74
2021/01/22 09:19:58;;;;;;;18.00;9.43;;;;;;;3.91;95.45;98835.84;6231665;28;20053;-75
2021/01/22 09:23:04;;;;;;;13.80;8.73;;;;;;;3.99;93.13;98836.22;6248691;28;20057;-76
2021/01/22 09:26:06;;;;;;;16.58;9.55;;;;;;;3.92;94.19;98847.06;6248462;28;20053;-76
2021/01/22 09:29:06;;;;;;;15.98;9.20;;;;;;;4.01;94.24;98851.75;6248257;28;20053;-77
2021/01/22 09:32:08;;;;;;;19.88;9.57;;;;;;;3.88;93.76;98849.00;6248642;28;20060;-77
2021/01/22 09:35:10;;;;;;;17.52;8.80;;;;;;;3.91;92.64;98851.44;6249126;28;20053;-75
2021/01/22 09:38:11;;;;;;;14.35;10.45;;;;;;;3.92;93.18;98852.28;6247450;28;20053;-76
2021/01/22 09:41:12;;;;;;;15.98;9.75;;;;;;;3.97;93.79;98858.88;6244931;28;20045;-76
2021/01/22 09:44:13;;;;;;;17.48;9.90;;;;;;;4.10;92.38;98866.81;6246743;28;20052;-75
2021/01/22 09:47:14;;;;;;;13.68;10.35;;;;;;;4.12;91.36;98871.91;6245826;28;20045;-76
2021/01/22 09:50:17;;;;;;;20.17;11.07;;;;;;;4.14;92.64;98875.28;6247852;28;20057;-77
2021/01/22 09:53:18;;;;;;;18.60;10.75;;;;;;;4.15;92.70;98875.19;6248110;28;20517;-77
2021/01/22 09:56:19;;;;;;;23.70;11.23;;;;;;;4.21;92.80;98879.19;6244449;28;20050;-76
2021/01/22 09:59:19;;;;;;;15.68;10.73;;;;;;;4.32;91.87;98885.47;6245540;28;20060;-76
2021/01/22 10:02:20;;;;;;;18.67;10.80;;;;;;;4.25;91.04;98891.09;6246624;28;20532;-77
2021/01/22 10:05:22;;;;;;;21.02;12.43;;;;;;;4.10;91.74;98891.97;6247313;28;20045;-79
2021/01/22 10:08:23;;;;;;;20.70;12.40;;;;;;;4.18;92.14;98892.34;6245597;28;20072;-77
2021/01/22 10:11:24;;;;;;;19.23;11.45;;;;;;;4.10;91.12;98895.41;6246492;28;20042;-76
2021/01/22 10:14:24;;;;;;;16.73;11.00;;;;;;;4.31;91.03;98899.41;6246743;28;20057;-76
2021/01/22 10:17:25;;;;;;;19.38;11.35;;;;;;;4.39;90.54;98893.72;6247405;28;20475;-75
2021/01/22 10:20:27;;;;;;;17.70;11.10;;;;;;;4.24;90.20;98902.41;6234330;28;20518;-75
2021/01/22 10:23:28;;;;;;;17.38;10.68;;;;;;;4.37;89.01;98902.56;6222867;28;20104;-75
2021/01/22 10:26:28;;;;;;;21.08;10.18;;;;;;;4.64;88.18;98905.31;6242923;28;20383;-75
2021/01/22 10:29:29;;;;;;;17.88;10.35;;;;;;;4.57;88.09;98923.03;6246453;28;20060;-76
2021/01/22 10:32:30;;;;;;;17.27;10.40;;;;;;;4.46;89.35;98934.06;6247248;28;20407;-76
2021/01/22 10:35:32;;;;;;;22.17;11.13;;;;;;;4.41;88.79;98936.09;6247139;28;20052;-75
2021/01/22 10:38:34;;;;;;;20.42;11.00;;;;;;;4.37;88.93;98957.16;6247158;28;20050;-78
2021/01/22 10:41:34;;;;;;;14.98;10.27;;;;;;;4.53;88.15;98953.59;6246680;28;20041;-76
2021/01/22 10:44:35;;;;;;;16.98;9.40;;;;;;;4.41;88.28;98956.91;6246179;28;20111;-77
2021/01/22 10:47:36;;;;;;;19.77;10.40;;;;;;;4.57;87.14;98951.66;6237728;28;20115;-75
2021/01/22 10:50:38;;;;;;;15.52;9.38;;;;;;;4.67;86.90;98964.97;6228530;28;20464;-75
2021/01/22 10:53:38;;;;;;;18.33;9.77;;;;;;;4.53;87.27;98963.16;6245985;28;20053;-76
2021/01/22 10:56:39;;;;;;;15.68;9.48;;;;;;;4.48;87.46;98968.63;6245438;28;20119;-77
2021/01/22 10:59:40;;;;;;;14.38;10.30;;;;;;;4.45;88.32;98978.34;6246584;28;20521;-77
2021/01/22 11:02:42;;;;;;;18.25;9.55;;;;;;;4.47;87.19;98979.13;6246457;23;20053;-77
2021/01/22 11:05:43;;;;;;;16.92;9.90;;;;;;;4.48;88.16;98973.00;6220870;28;20050;-76
2021/01/22 11:08:44;;;;;;;13.98;9.48;;;;;;;4.70;86.94;98983.84;6221578;28;20049;-76
2021/01/22 11:11:45;;;;;;;17.00;9.70;;;;;;;4.56;86.15;98984.63;6221866;28;20054;-77
2021/01/22 11:14:46;;;;;;;22.90;10.25;;;;;;;4.55;87.62;98976.94;6221031;28;20058;-75
2021/01/22 11:17:47;;;;;;;19.63;10.02;;;;;;;4.60;87.55;98985.31;6222103;28;20449;-74
2021/01/22 11:20:49;;;;;;;16.48;9.63;;;;;;;4.57;86.52;98988.06;6221354;28;20050;-75
2021/01/22 11:23:50;;;;;;;17.02;9.35;;;;;;;4.66;87.11;98984.94;6221088;28;20054;-74
2021/01/22 11:26:51;;;;;;;23.10;10.45;;;;;;;4.72;86.30;98984.59;6221396;28;20522;-74
2021/01/22 11:29:52;;;;;;;17.08;9.63;;;;;;;4.74;86.06;98984.50;6221535;28;20056;-75
2021/01/22 11:32:53;;;;;;;16.98;9.43;;;;;;;4.85;86.35;98987.31;6221771;28;20073;-76
2021/01/22 11:35:55;;;;;;;20.02;9.52;;;;;;;4.88;86.46;98988.91;6221615;28;20074;-76
2021/01/22 11:38:56;;;;;;;19.92;9.32;;;;;;;4.95;86.26;98998.88;6221560;28;20054;-76
2021/01/22 11:41:57;;;;;;;22.17;9.57;;;;;;;4.97;84.63;98999.63;6223181;28;20416;-76
2021/01/22 11:44:58;;;;;;;18.77;9.43;;;;;;;4.92;84.85;98988.66;6233514;28;20510;-76
2021/01/22 11:47:59;;;;;;;18.48;8.15;;;;;;;4.97;84.10;98999.63;6221415;28;20050;-76
2021/01/22 11:51:00;;;;;;;21.00;9.95;;;;;;;5.04;85.26;98993.16;6221355;28;20045;-75
2021/01/22 11:54:01;;;;;;;25.33;9.48;;;;;;;4.97;84.41;98989.22;6221451;28;20458;-75
2021/01/22 11:57:02;;;;;;;17.00;9.00;;;;;;;5.03;85.38;98985.41;6221231;28;20050;-76
2021/01/22 12:00:04;;;;;;;12.88;7.80;;;;;;;5.01;83.87;98982.91;6220944;28;20060;-75
2021/01/22 12:03:05;;;;;;;22.48;8.73;;;;;;;5.07;85.18;98984.28;6221465;28;20049;-73
2021/01/22 12:06:07;;;;;;;19.20;8.43;;;;;;;5.00;83.21;98981.22;6220941;28;20465;-77
2021/01/22 12:09:08;;;;;;;19.30;8.25;;;;;;;5.00;83.31;98981.22;6234110;28;20494;-76
2021/01/22 12:12:09;;;;;;;17.52;7.97;;;;;;;4.96;84.20;98984.94;6222386;28;20134;-75
2021/01/22 12:15:11;;;;;;;27.98;8.32;;;;;;;4.83;84.15;98984.81;6221400;28;20049;-75
2021/01/22 12:18:12;;;;;;;18.10;8.00;;;;;;;4.90;83.95;98977.47;6221003;28;20050;-75
2021/01/22 12:21:14;;;;;;;16.08;7.68;;;;;;;4.98;84.11;98972.66;6220642;28;20131;-75
2021/01/22 12:24:14;;;;;;;12.30;7.22;;;;;;;5.14;83.00;98972.59;6221290;28;20056;-76
2021/01/22 12:27:15;;;;;;;20.13;7.53;;;;;;;5.41;80.80;98984.91;6220724;28;20388;-77
2021/01/22 12:30:17;;;;;;;16.38;7.00;;;;;;;5.44;81.18;98977.72;6224173;28;20050;-75
2021/01/22 12:33:18;;;;;;;11.43;6.63;;;;;;;5.29;82.84;98979.50;6224935;28;20045;-74
2021/01/22 12:36:19;;;;;;;13.45;7.03;;;;;;;5.43;81.13;98977.81;6225464;28;20046;-75
2021/01/22 12:39:20;;;;;;;16.70;6.82;;;;;;;5.41;80.94;98984.91;6224585;28;20046;-75
2021/01/22 12:42:21;;;;;;;14.07;6.65;;;;;;;5.47;80.00;98993.19;6225496;28;20112;-74
2021/01/22 12:45:24;;;;;;;22.05;6.60;;;;;;;5.45;80.43;98988.97;6225076;28;20053;-76
2021/01/22 12:48:25;;;;;;;20.50;6.90;;;;;;;5.47;80.13;98992.34;6224675;28;20068;-76
2021/01/22 12:51:27;;;;;;;16.23;5.95;;;;;;;5.35;79.10;98986.91;6224973;28;20049;-73
2021/01/22 12:54:27;;;;;;;11.68;5.53;;;;;;;5.35;79.57;99007.75;6224485;28;20042;-75
2021/01/22 12:57:28;;;;;;;13.85;5.18;;;;;;;5.51;77.17;98999.88;6224361;28;20104;-74
2021/01/22 13:00:30;;;;;;;15.32;5.82;;;;;;;5.50;77.81;99000.81;6229171;28;20495;-76
2021/01/22 13:03:31;;;;;;;14.27;5.38;;;;;;;5.45;76.98;99010.69;6224009;28;20052;-75
2021/01/22 13:06:33;;;;;;;9.60;4.57;;;;;;;5.60;76.90;99007.13;6224072;28;20054;-77
2021/01/22 13:09:35;;;;;;;16.67;4.60;;;;;;;5.49;77.36;99008.69;6224350;28;20400;-73
2021/01/22 13:12:36;;;;;;;11.35;5.15;;;;;;;5.52;77.38;99011.13;6224642;28;20258;-75
2021/01/22 13:15:36;;;;;;;13.73;4.47;;;;;;;5.56;76.74;99015.22;6224593;28;20477;-74
2021/01/22 13:18:37;;;;;;;11.70;4.63;;;;;;;5.30;78.02;99028.03;6223857;28;20046;-77
2021/01/22 13:21:39;;;;;;;12.88;4.32;;;;;;;5.50;78.31;99032.06;6224167;28;20057;-75
2021/01/22 13:24:40;;;;;;;12.35;4.68;;;;;;;5.60;76.33;99030.59;6224416;28;20054;-75
2021/01/22 13:27:41;;;;;;;10.25;4.32;;;;;;;5.42;76.03;99038.66;6246471;28;20521;-76
2021/01/22 13:30:41;;;;;;;11.02;4.25;;;;;;;5.29;76.42;99025.53;6242552;28;20050;-76
2021/01/22 13:33:42;;;;;;;10.35;4.13;;;;;;;5.44;76.71;99035.03;6223408;28;20055;-74
2021/01/22 13:36:44;;;;;;;11.20;4.32;;;;;;;5.54;75.85;99043.13;6223783;28;20042;-76
2021/01/22 13:39:45;;;;;;;10.43;3.55;;;;;;;5.45;76.21;99038.47;6223190;28;20549;-74
2021/01/22 13:42:48;;;;;;;18.70;4.20;;;;;;;5.66;75.88;99033.75;6215613;28;20061;-75
2021/01/22 13:45:49;;;;;;;10.75;4.03;;;;;;;5.54;76.33;99043.13;6223721;28;20423;-77
2021/01/22 13:48:50;;;;;;;11.30;4.32;;;;;;;5.58;75.64;99050.66;6222938;28;20050;-76
2021/01/22 13:51:52;;;;;;;8.52;4.07;;;;;;;5.94;74.56;99056.38;6224363;28;20583;-73
2021/01/22 13:54:53;;;;;;;10.50;4.80;;;;;;;5.94;73.53;99062.44;6218287;28;20046;-73
2021/01/22 13:57:54;;;;;;;13.75;4.30;;;;;;;5.61;74.90;99067.91;6223003;28;20423;-76
2021/01/22 14:00:55;;;;;;;10.35;4.25;;;;;;;5.72;73.49;99073.31;6222850;28;20050;-73
2021/01/22 14:03:55;;;;;;;9.65;3.50;;;;;;;5.69;72.52;99075.25;6223318;28;20056;-75
2021/01/22 14:06:58;;;;;;;8.73;3.63;;;;;;;5.48;74.06;99087.78;6223099;28;20046;-74
2021/01/22 14:09:59;;;;;;;12.60;3.80;;;;;;;5.78;72.23;99088.56;6223028;28;20056;-74
2021/01/22 14:13:00;;;;;;;10.63;3.33;;;;;;;5.59;73.70;99093.22;6222826;28;20049;-74
2021/01/22 14:16:01;;;;;;;12.70;4.15;;;;;;;5.66;73.89;99091.06;6222614;28;20052;-72
2021/01/22 14:19:02;;;;;;;7.43;3.72;;;;;;;5.51;74.86;99104.09;6223796;28;20050;-76
2021/01/22 14:22:03;;;;;;;7.28;3.55;;;;;;;5.53;74.55;99110.03;6222547;28;20536;-75